Terminal Aerodrome Forecast
Issued by NWS Wilmington, OH

Home | Current Version | Previous Version | Text Only | Print | Product List | Glossary On
Versions: 1 2 3 4 5 6 7 8 9 10 11 12 13 14 15 16 17 18
000
FTUS41 KILN 232300
TAFDAY
TAF
KDAY 232335Z 2400/2424 01011KT P6SM VCSH FEW008 BKN012 OVC025
      TEMPO 2400/2402 2SM -SHRA BR BKN008
     FM240400 02009KT P6SM SCT040
     FM241400 02010KT P6SM BKN035
     FM242300 03006KT P6SM SKC=

USA.gov is the U.S. government's official web portal to all federal, state and local government web resources and services.